Time;durP1;ratioP1;P1;durP2;ratioP2;P2;SDS_P1;SDS_P2;PMS_P1;PMS_P2;Temp;Humidity;BMP_temperature;BMP_pressure;BME280_temperature;BME280_humidity;BME280_pressure;Samples;Min_cycle;Max_cycle;Signal;HPM_P1;HPM_P2
2021/11/04 00:00:34;;;;;;;14.93;8.40;;;6.90;99.90;;;;;;4980074;28;20045;-66
2021/11/04 00:03:02;;;;;;;14.60;7.70;;;6.90;99.90;;;;;;4980225;28;20458;-67
2021/11/04 00:05:31;;;;;;;17.25;7.50;;;6.90;99.90;;;;;;4979915;28;20019;-67
2021/11/04 00:08:03;;;;;;;14.98;8.30;;;6.90;99.90;;;;;;4980053;28;20023;-67
2021/11/04 00:10:32;;;;;;;14.07;8.32;;;6.80;99.90;;;;;;4979641;28;20038;-67
2021/11/04 00:13:00;;;;;;;18.33;8.45;;;6.80;99.90;;;;;;4979848;28;20026;-67
2021/11/04 00:15:29;;;;;;;16.08;8.20;;;6.80;99.90;;;;;;4962540;28;20027;-67
2021/11/04 00:17:58;;;;;;;16.42;8.18;;;6.80;99.90;;;;;;4979544;28;20442;-67
2021/11/04 00:20:27;;;;;;;13.80;7.80;;;6.80;99.90;;;;;;4979638;28;20030;-67
2021/11/04 00:22:55;;;;;;;21.90;9.38;;;6.80;99.90;;;;;;4963070;28;20022;-67
2021/11/04 00:25:22;;;;;;;21.83;9.07;;;6.80;99.90;;;;;;4980466;28;20027;-67
2021/11/04 00:27:50;;;;;;;20.33;8.45;;;6.80;99.90;;;;;;4980936;28;20388;-67
2021/11/04 00:30:19;;;;;;;20.48;9.82;;;6.80;99.90;;;;;;4980324;28;20031;-67
2021/11/04 00:32:54;;;;;;;21.17;9.82;;;6.80;99.90;;;;;;4980491;28;20026;-67
2021/11/04 00:35:22;;;;;;;21.02;10.05;;;6.80;99.90;;;;;;4980594;28;20062;-67
2021/11/04 00:37:50;;;;;;;17.80;8.82;;;6.80;99.90;;;;;;4980764;28;20082;-67
2021/11/04 00:40:20;;;;;;;17.40;9.00;;;6.80;99.90;;;;;;4962992;28;20023;-67
2021/11/04 00:42:48;;;;;;;21.25;10.57;;;6.80;99.90;;;;;;4958830;29;20047;-67
2021/11/04 00:45:16;;;;;;;24.08;10.93;;;6.90;99.90;;;;;;4960046;29;20102;-67
2021/11/04 00:47:43;;;;;;;20.05;10.68;;;6.90;99.90;;;;;;4959814;28;20031;-67
2021/11/04 00:50:10;;;;;;;20.27;10.45;;;6.90;99.90;;;;;;4960389;28;20023;-67
2021/11/04 00:52:38;;;;;;;26.13;11.27;;;6.90;99.90;;;;;;4960023;28;20027;-67
2021/11/04 00:55:07;;;;;;;23.02;10.68;;;6.90;99.90;;;;;;4959980;29;20122;-67
2021/11/04 00:57:35;;;;;;;23.98;11.35;;;7.00;99.90;;;;;;4960236;29;20034;-66
2021/11/04 01:00:05;;;;;;;24.17;11.48;;;7.00;99.90;;;;;;4959597;29;20099;-67
2021/11/04 01:02:33;;;;;;;25.10;11.45;;;7.00;99.90;;;;;;4959496;28;20047;-67
2021/11/04 01:05:01;;;;;;;22.25;12.00;;;7.00;99.90;;;;;;4960619;29;20027;-67
2021/11/04 01:07:28;;;;;;;22.23;10.43;;;7.00;99.90;;;;;;4960967;29;20375;-67
2021/11/04 01:09:56;;;;;;;22.63;10.43;;;7.00;99.90;;;;;;4960396;29;20424;-67
2021/11/04 01:12:24;;;;;;;24.45;11.05;;;7.00;99.90;;;;;;4959253;29;20134;-67
2021/11/04 01:14:51;;;;;;;23.25;11.18;;;7.00;99.90;;;;;;4960983;29;20026;-67
2021/11/04 01:17:19;;;;;;;21.50;10.80;;;7.10;99.90;;;;;;4960112;28;20019;-67
2021/11/04 01:19:47;;;;;;;26.45;10.68;;;7.00;99.90;;;;;;4960661;29;20031;-67
2021/11/04 01:22:15;;;;;;;20.75;11.02;;;7.00;99.90;;;;;;4960642;29;20418;-67
2021/11/04 01:24:42;;;;;;;21.80;10.00;;;7.00;99.90;;;;;;4959588;29;20320;-67
2021/11/04 01:27:10;;;;;;;27.05;11.35;;;7.00;99.90;;;;;;4959123;29;20079;-67
2021/11/04 01:29:37;;;;;;;22.65;10.68;;;7.00;99.90;;;;;;4958052;29;20027;-67
2021/11/04 01:32:05;;;;;;;24.80;12.23;;;7.00;99.90;;;;;;4958038;29;20031;-67
2021/11/04 01:34:32;;;;;;;28.52;11.65;;;7.10;99.90;;;;;;4959519;28;20096;-67
2021/11/04 01:37:00;;;;;;;29.00;11.10;;;7.10;99.90;;;;;;4959498;28;20511;-67
2021/11/04 01:39:27;;;;;;;25.00;10.57;;;7.00;99.90;;;;;;4959401;29;20035;-67
2021/11/04 01:41:54;;;;;;;29.00;11.23;;;7.00;99.90;;;;;;4962295;28;20050;-67
2021/11/04 01:44:22;;;;;;;29.92;12.20;;;7.00;99.90;;;;;;4978161;28;20015;-67
2021/11/04 01:46:51;;;;;;;27.30;11.75;;;7.00;99.90;;;;;;4961057;28;20416;-67
2021/11/04 01:49:18;;;;;;;23.65;10.98;;;7.10;99.90;;;;;;4979088;28;20043;-67
2021/11/04 01:51:45;;;;;;;21.77;10.65;;;7.10;99.90;;;;;;4979471;28;20027;-67
2021/11/04 01:54:13;;;;;;;25.30;10.93;;;7.00;99.90;;;;;;4978970;28;20076;-67
2021/11/04 01:56:41;;;;;;;40.22;12.85;;;7.10;99.90;;;;;;4961705;28;20038;-67
2021/11/04 01:59:09;;;;;;;26.17;11.10;;;7.10;99.90;;;;;;4978944;28;20031;-67
2021/11/04 02:01:37;;;;;;;26.65;11.98;;;7.10;99.90;;;;;;4979060;28;20415;-67
2021/11/04 02:04:26;;;;;;;26.25;11.32;;;7.10;99.90;;;;;;4978745;28;20022;-67
2021/11/04 02:07:26;;;;;;;27.95;11.52;;;7.10;99.90;;;;;;4978508;28;20034;-67
2021/11/04 02:10:12;;;;;;;31.23;12.32;;;7.10;99.90;;;;;;4977999;28;20030;-67
2021/11/04 02:12:49;;;;;;;21.93;8.17;;;7.10;99.90;;;;;;4978335;28;20031;-67
2021/11/04 02:15:17;;;;;;;30.70;11.90;;;7.10;99.90;;;;;;4978279;28;20065;-67
2021/11/04 02:17:46;;;;;;;31.58;13.27;;;7.10;99.90;;;;;;4960530;28;20027;-67
2021/11/04 02:20:21;;;;;;;26.95;11.85;;;7.10;99.90;;;;;;4977771;28;20023;-67
2021/11/04 02:23:18;;;;;;;30.58;12.10;;;7.10;99.90;;;;;;4977924;28;20026;-67
2021/11/04 02:25:47;;;;;;;31.60;11.32;;;7.10;99.90;;;;;;4977627;28;20086;-67
2021/11/04 02:28:19;;;;;;;37.42;12.05;;;7.10;99.90;;;;;;4978286;28;20461;-67
2021/11/04 02:30:49;;;;;;;31.25;12.50;;;7.10;99.90;;;;;;4978163;28;20027;-67
2021/11/04 02:33:25;;;;;;;32.58;12.18;;;7.10;99.90;;;;;;4961326;28;20030;-67
2021/11/04 02:35:53;;;;;;;34.67;12.30;;;7.10;99.90;;;;;;4961331;28;20114;-67
2021/11/04 02:38:23;;;;;;;28.73;12.77;;;7.10;99.90;;;;;;4978794;28;20031;-67
2021/11/04 02:40:53;;;;;;;30.17;14.15;;;7.10;99.90;;;;;;4978406;28;20023;-67
2021/11/04 02:43:22;;;;;;;30.02;12.82;;;7.10;99.90;;;;;;4978095;28;20054;-67
2021/11/04 02:45:54;;;;;;;32.78;13.02;;;7.10;99.90;;;;;;4978270;28;20053;-67
2021/11/04 02:48:21;;;;;;;30.20;13.95;;;7.20;99.90;;;;;;4961071;28;20134;-67
2021/11/04 02:50:52;;;;;;;33.70;13.82;;;7.20;99.90;;;;;;4978340;28;20049;-67
2021/11/04 02:53:21;;;;;;;31.77;13.45;;;7.20;99.90;;;;;;4977913;28;20034;-67
2021/11/04 02:55:49;;;;;;;33.75;14.52;;;7.20;99.90;;;;;;4977387;28;20031;-67
2021/11/04 02:58:18;;;;;;;34.80;13.77;;;7.20;99.90;;;;;;4960107;28;20030;-67
2021/11/04 03:00:53;;;;;;;30.38;13.18;;;7.20;99.90;;;;;;4977315;28;20023;-67
2021/11/04 03:03:21;;;;;;;41.72;14.63;;;7.20;99.90;;;;;;4977844;28;20142;-67
2021/11/04 03:05:48;;;;;;;38.35;14.88;;;7.20;99.90;;;;;;4977329;28;20014;-67
2021/11/04 03:08:16;;;;;;;33.10;14.13;;;7.20;99.90;;;;;;4977247;28;20046;-67
2021/11/04 03:10:44;;;;;;;34.72;14.65;;;7.20;99.90;;;;;;4960082;28;20027;-67
2021/11/04 03:13:11;;;;;;;30.85;13.80;;;7.20;99.90;;;;;;4960673;28;20297;-67
2021/11/04 03:15:40;;;;;;;37.00;14.70;;;7.20;99.90;;;;;;4978587;28;20019;-67
2021/11/04 03:18:08;;;;;;;41.15;16.00;;;7.20;99.90;;;;;;4980984;28;20027;-67
2021/11/04 03:20:36;;;;;;;41.55;16.10;;;7.20;99.90;;;;;;4981708;28;20019;-67
2021/11/04 03:23:05;;;;;;;39.88;16.95;;;7.30;99.90;;;;;;4982321;28;20415;-67
2021/11/04 03:25:33;;;;;;;41.53;16.60;;;7.30;99.90;;;;;;4981575;28;20033;-67
2021/11/04 03:28:03;;;;;;;44.90;17.42;;;7.30;99.90;;;;;;4982059;28;20400;-67
2021/11/04 03:30:36;;;;;;;42.95;16.30;;;7.30;99.90;;;;;;4964302;28;20077;-67
2021/11/04 03:33:06;;;;;;;41.88;15.27;;;7.30;99.90;;;;;;4981158;28;20027;-67
2021/11/04 03:35:36;;;;;;;38.50;16.48;;;7.30;99.90;;;;;;4981048;28;20023;-67
2021/11/04 03:38:07;;;;;;;40.42;15.60;;;7.30;99.90;;;;;;4980240;28;20031;-67
2021/11/04 03:40:36;;;;;;;38.72;15.70;;;7.30;99.90;;;;;;4980380;28;20423;-67
2021/11/04 03:43:05;;;;;;;40.75;15.77;;;7.30;99.90;;;;;;4980352;28;20395;-67
2021/11/04 03:45:33;;;;;;;35.97;14.77;;;7.30;99.90;;;;;;4980864;28;20023;-67
2021/11/04 03:48:01;;;;;;;37.63;14.85;;;7.40;99.90;;;;;;4980248;28;20023;-67
2021/11/04 03:50:29;;;;;;;35.13;16.42;;;7.40;99.90;;;;;;4980750;28;20023;-67
2021/11/04 03:52:57;;;;;;;37.75;15.98;;;7.40;99.90;;;;;;4980134;28;20062;-67
2021/11/04 03:55:28;;;;;;;43.97;17.10;;;7.40;99.90;;;;;;4980935;28;20086;-67
2021/11/04 03:57:57;;;;;;;40.40;15.93;;;7.40;99.90;;;;;;4981769;28;20026;-67
2021/11/04 04:00:25;;;;;;;41.15;16.67;;;7.40;99.90;;;;;;4981091;28;20069;-67
2021/11/04 04:02:52;;;;;;;41.15;16.08;;;7.40;99.90;;;;;;4980780;28;20093;-67
2021/11/04 04:05:31;;;;;;;39.78;16.33;;;7.40;99.90;;;;;;4980844;28;20015;-67
2021/11/04 04:08:00;;;;;;;34.75;14.65;;;7.40;99.90;;;;;;4980808;28;20054;-67
2021/11/04 04:10:31;;;;;;;38.80;14.95;;;7.40;99.90;;;;;;4980769;28;20023;-67
2021/11/04 04:13:00;;;;;;;40.22;15.32;;;7.40;99.90;;;;;;4981216;28;20026;-67
2021/11/04 04:15:28;;;;;;;38.65;15.63;;;7.40;99.90;;;;;;4963346;28;20114;-67
2021/11/04 04:17:56;;;;;;;35.63;14.45;;;7.40;99.90;;;;;;4979702;28;20022;-67
2021/11/04 04:20:25;;;;;;;34.50;14.43;;;7.40;99.90;;;;;;4979879;28;20412;-67
2021/11/04 04:22:53;;;;;;;41.60;14.63;;;7.40;99.90;;;;;;4979627;28;20015;-67
2021/11/04 04:25:20;;;;;;;35.55;15.07;;;7.40;99.90;;;;;;4979802;28;20053;-67
2021/11/04 04:27:48;;;;;;;39.55;15.18;;;7.40;99.90;;;;;;4979042;28;20023;-67
2021/11/04 04:30:15;;;;;;;40.53;17.00;;;7.40;99.90;;;;;;4979722;28;20467;-67
2021/11/04 04:32:43;;;;;;;32.95;15.07;;;7.50;99.90;;;;;;4962247;28;20327;-67
2021/11/04 04:35:10;;;;;;;33.25;14.02;;;7.40;99.90;;;;;;4979598;28;20061;-67
2021/11/04 04:37:38;;;;;;;37.47;16.25;;;7.40;99.90;;;;;;4979970;28;20081;-67
2021/11/04 04:40:06;;;;;;;39.30;15.65;;;7.40;99.90;;;;;;4980284;28;20031;-67
2021/11/04 04:42:34;;;;;;;38.85;15.65;;;7.40;99.90;;;;;;4980249;28;20051;-67
2021/11/04 04:45:01;;;;;;;36.17;14.50;;;7.40;99.90;;;;;;4980356;28;20086;-67
2021/11/04 04:47:28;;;;;;;34.40;15.57;;;7.40;99.90;;;;;;4980337;28;20356;-67
2021/11/04 04:49:58;;;;;;;38.38;14.85;;;7.50;99.90;;;;;;4962912;28;20280;-67
2021/11/04 04:52:27;;;;;;;35.92;14.30;;;7.40;99.90;;;;;;4980208;28;20038;-67
2021/11/04 04:54:55;;;;;;;37.72;15.50;;;7.40;99.90;;;;;;4980192;28;20042;-67
2021/11/04 04:57:23;;;;;;;39.63;15.20;;;7.40;99.90;;;;;;4979865;28;20030;-67
2021/11/04 04:59:52;;;;;;;37.17;14.45;;;7.40;99.90;;;;;;4979004;28;20030;-67
2021/11/04 05:02:20;;;;;;;37.88;15.85;;;7.50;99.90;;;;;;4978720;28;20097;-67
2021/11/04 05:04:48;;;;;;;38.95;14.80;;;7.40;99.90;;;;;;4961863;28;20030;-67
2021/11/04 05:07:16;;;;;;;33.67;14.82;;;7.40;99.90;;;;;;4979372;28;20031;-67
2021/11/04 05:09:43;;;;;;;42.55;15.32;;;7.40;99.90;;;;;;4978742;28;20087;-67
2021/11/04 05:12:11;;;;;;;38.67;14.80;;;7.40;99.90;;;;;;4978746;28;20027;-67
2021/11/04 05:14:38;;;;;;;37.15;14.55;;;7.50;99.90;;;;;;4978851;28;20034;-67
2021/11/04 05:17:06;;;;;;;41.50;16.20;;;7.40;99.90;;;;;;4961421;28;20034;-67
2021/11/04 05:19:33;;;;;;;40.85;15.55;;;7.50;99.90;;;;;;4978493;28;20023;-67
2021/11/04 05:22:01;;;;;;;36.33;15.68;;;7.40;99.90;;;;;;4961824;28;20045;-67
2021/11/04 05:24:33;;;;;;;36.53;15.73;;;7.50;99.90;;;;;;4979441;28;20019;-67
2021/11/04 05:27:03;;;;;;;35.33;15.60;;;7.50;99.90;;;;;;4980103;28;20316;-66
2021/11/04 05:29:31;;;;;;;35.80;15.10;;;7.50;99.90;;;;;;4979780;28;20030;-67
2021/11/04 05:31:59;;;;;;;36.33;14.70;;;7.40;99.90;;;;;;4979256;28;20027;-67
2021/11/04 05:34:27;;;;;;;39.50;16.45;;;7.50;99.90;;;;;;4979327;28;20027;-66
2021/11/04 05:36:55;;;;;;;35.97;14.50;;;7.50;99.90;;;;;;4979775;28;20081;-67
2021/11/04 05:39:23;;;;;;;41.67;16.02;;;7.50;99.90;;;;;;4961805;28;20030;-67
2021/11/04 05:41:51;;;;;;;40.90;16.25;;;7.50;99.90;;;;;;4961184;28;20054;-67
2021/11/04 05:44:18;;;;;;;45.53;16.23;;;7.50;99.90;;;;;;4961183;28;20080;-67
2021/11/04 05:46:46;;;;;;;42.00;16.80;;;7.50;99.90;;;;;;4978671;28;20027;-67
2021/11/04 05:49:13;;;;;;;35.25;15.63;;;7.50;99.90;;;;;;4960865;28;20423;-66
2021/11/04 05:51:40;;;;;;;37.17;15.70;;;7.50;99.90;;;;;;4978583;28;20023;-67
2021/11/04 05:54:07;;;;;;;37.72;15.68;;;7.50;99.90;;;;;;4978243;28;20037;-66
2021/11/04 05:56:34;;;;;;;36.00;15.57;;;7.50;99.90;;;;;;4978562;28;20022;-67
2021/11/04 05:59:02;;;;;;;36.60;14.85;;;7.50;99.90;;;;;;4960801;28;20026;-67
2021/11/04 06:01:30;;;;;;;32.10;14.52;;;7.50;99.90;;;;;;4961454;28;20019;-67
2021/11/04 06:03:59;;;;;;;29.85;13.05;;;7.50;99.90;;;;;;4978152;28;20027;-67
2021/11/04 06:06:26;;;;;;;33.50;12.77;;;7.50;99.90;;;;;;4962084;28;20080;-67
2021/11/04 06:08:53;;;;;;;32.30;12.95;;;7.50;99.90;;;;;;4979289;28;20293;-67
2021/11/04 06:11:21;;;;;;;31.95;13.27;;;7.50;99.90;;;;;;4961536;28;20078;-67
2021/11/04 06:13:49;;;;;;;28.70;12.32;;;7.50;99.90;;;;;;4978856;28;20029;-67
2021/11/04 06:16:17;;;;;;;34.67;13.45;;;7.50;99.90;;;;;;4978690;28;20168;-67
2021/11/04 06:18:45;;;;;;;38.00;14.38;;;7.40;99.90;;;;;;4978517;28;20033;-67
2021/11/04 06:21:13;;;;;;;33.92;13.60;;;7.40;99.90;;;;;;4978555;28;20034;-67
2021/11/04 06:23:41;;;;;;;35.40;13.60;;;7.40;99.90;;;;;;4961405;28;20050;-67
2021/11/04 06:26:09;;;;;;;36.88;14.02;;;7.40;99.90;;;;;;4977619;28;20053;-67
2021/11/04 06:28:36;;;;;;;40.92;15.00;;;7.40;99.90;;;;;;4977546;28;20464;-67
2021/11/04 06:31:04;;;;;;;43.05;14.60;;;7.40;99.90;;;;;;4977991;28;20098;-67
2021/11/04 06:33:32;;;;;;;41.70;13.98;;;7.40;99.90;;;;;;4977872;28;20023;-67
2021/11/04 06:36:00;;;;;;;38.30;14.23;;;7.40;99.90;;;;;;4977596;28;20075;-67
2021/11/04 06:38:28;;;;;;;43.03;14.77;;;7.40;99.90;;;;;;4977664;28;20027;-67
2021/11/04 06:40:56;;;;;;;41.08;15.55;;;7.50;99.90;;;;;;4977575;28;20027;-67
2021/11/04 06:43:24;;;;;;;34.35;14.10;;;7.40;99.90;;;;;;4977304;28;20046;-67
2021/11/04 06:45:52;;;;;;;39.92;15.23;;;7.50;99.90;;;;;;4978042;28;20019;-66
2021/11/04 06:48:44;;;;;;;43.53;15.30;;;7.40;99.90;;;;;;4978027;28;20019;-66
2021/11/04 06:51:23;;;;;;;33.72;14.52;;;7.50;99.90;;;;;;4978423;28;20027;-65
2021/11/04 06:53:55;;;;;;;35.53;14.30;;;7.50;99.90;;;;;;4982148;28;20023;-66
2021/11/04 06:56:24;;;;;;;36.05;14.18;;;7.50;99.90;;;;;;4982091;28;20423;-65
2021/11/04 06:58:55;;;;;;;31.88;13.20;;;7.50;99.90;;;;;;4982533;28;20352;-66
2021/11/04 07:01:24;;;;;;;34.80;13.75;;;7.50;99.90;;;;;;4981980;28;20023;-66
2021/11/04 07:04:11;;;;;;;37.35;14.48;;;7.50;99.90;;;;;;4982143;28;20546;-66
2021/11/04 07:06:47;;;;;;;34.83;14.30;;;7.50;99.90;;;;;;4981908;28;20034;-66
2021/11/04 07:09:14;;;;;;;;;;;7.50;99.90;;;;;;4981673;28;20081;-66
2021/11/04 07:11:41;;;;;;;;;;;7.50;99.90;;;;;;4981463;28;19907;-66
2021/11/04 07:14:08;;;;;;;33.72;13.90;;;7.60;99.90;;;;;;4963838;28;20211;-66
2021/11/04 07:16:36;;;;;;;34.80;14.65;;;7.50;99.90;;;;;;4980941;28;20143;-66
2021/11/04 07:19:04;;;;;;;40.20;16.85;;;7.50;99.90;;;;;;4980927;28;20031;-66
2021/11/04 07:21:42;;;;;;;41.22;17.58;;;7.50;99.90;;;;;;4981595;28;20319;-83
2021/11/04 07:24:23;;;;;;;41.33;17.80;;;7.60;99.90;;;;;;4963569;28;20082;-85
2021/11/04 07:26:55;;;;;;;32.38;14.00;;;7.60;99.90;;;;;;4963566;28;20030;-81
2021/11/04 07:29:34;;;;;;;39.20;16.88;;;7.60;99.90;;;;;;4963733;28;20023;-83
2021/11/04 07:32:03;;;;;;;43.13;19.17;;;7.60;99.90;;;;;;4964279;28;20074;-81
2021/11/04 07:34:30;;;;;;;40.17;15.40;;;7.60;99.90;;;;;;4981452;28;20050;-81
2021/11/04 07:37:01;;;;;;;32.88;13.55;;;7.60;99.90;;;;;;4964542;28;20324;-83
2021/11/04 07:39:28;;;;;;;35.90;14.98;;;7.60;99.90;;;;;;4964535;28;20026;-85
2021/11/04 07:41:56;;;;;;;37.55;15.88;;;7.60;99.90;;;;;;4963693;28;20050;-80
2021/11/04 07:44:23;;;;;;;33.42;14.65;;;7.60;99.90;;;;;;4981396;28;20046;-79
2021/11/04 07:46:50;;;;;;;37.95;16.35;;;7.60;99.90;;;;;;4981797;28;20027;-78
2021/11/04 07:49:18;;;;;;;33.92;14.55;;;7.60;99.90;;;;;;4964129;28;20455;-80
2021/11/04 07:51:46;;;;;;;34.78;15.50;;;7.60;99.90;;;;;;4963298;28;20030;-80
2021/11/04 07:54:14;;;;;;;32.67;15.45;;;7.60;99.90;;;;;;4980283;28;20423;-80
2021/11/04 07:56:41;;;;;;;33.30;15.45;;;7.70;99.90;;;;;;4963002;28;20030;-80
2021/11/04 07:59:09;;;;;;;33.97;14.93;;;7.70;99.90;;;;;;4963021;28;20034;-83
2021/11/04 08:01:36;;;;;;;28.02;13.38;;;7.70;99.90;;;;;;4980379;28;20045;-79
2021/11/04 08:04:04;;;;;;;28.20;13.63;;;7.70;99.90;;;;;;4961487;28;20174;-79
2021/11/04 08:06:32;;;;;;;33.70;15.38;;;7.70;99.90;;;;;;4980028;28;20101;-79
2021/11/04 08:09:01;;;;;;;26.27;13.43;;;7.70;99.90;;;;;;4980239;28;20105;-79
2021/11/04 08:11:30;;;;;;;24.42;11.85;;;7.70;99.90;;;;;;4962781;28;20035;-80
2021/11/04 08:13:58;;;;;;;23.90;11.30;;;7.70;99.90;;;;;;4980482;28;20297;-78
2021/11/04 08:16:25;;;;;;;24.17;11.77;;;7.70;99.90;;;;;;4963519;28;20026;-79
2021/11/04 08:18:52;;;;;;;27.33;12.65;;;7.70;99.90;;;;;;4980669;28;20027;-79
2021/11/04 08:21:20;;;;;;;18.63;10.05;;;7.70;99.90;;;;;;4962780;28;20027;-78
2021/11/04 08:23:47;;;;;;;22.95;10.88;;;7.70;99.90;;;;;;4980814;28;20023;-76
2021/11/04 08:26:15;;;;;;;20.67;9.85;;;7.70;99.90;;;;;;4963442;28;20331;-77
2021/11/04 08:28:43;;;;;;;22.13;10.38;;;7.70;99.90;;;;;;4980584;28;20371;-77
2021/11/04 08:31:11;;;;;;;17.60;9.20;;;7.70;99.90;;;;;;4980518;28;20076;-76
2021/11/04 08:33:39;;;;;;;19.42;10.20;;;7.70;99.90;;;;;;4962750;28;20441;-76
2021/11/04 08:36:06;;;;;;;17.40;8.07;;;7.70;99.90;;;;;;4979482;28;20147;-76
2021/11/04 08:38:35;;;;;;;16.83;8.02;;;7.70;99.90;;;;;;4979407;28;20029;-76
2021/11/04 08:41:02;;;;;;;18.25;8.85;;;7.70;99.90;;;;;;4979316;28;20106;-76
2021/11/04 08:43:30;;;;;;;15.52;7.97;;;7.70;99.90;;;;;;4979242;28;20062;-77
2021/11/04 08:45:58;;;;;;;14.45;7.78;;;7.70;99.90;;;;;;4962140;28;20382;-76
2021/11/04 08:48:25;;;;;;;14.98;7.72;;;7.60;99.90;;;;;;4962018;28;20034;-76
2021/11/04 08:50:52;;;;;;;16.95;8.02;;;7.70;99.90;;;;;;4962008;28;20121;-76
2021/11/04 08:53:20;;;;;;;14.98;8.00;;;7.70;99.90;;;;;;4979563;28;20019;-76
2021/11/04 08:55:48;;;;;;;13.25;6.80;;;7.70;99.90;;;;;;4979409;28;20407;-75
2021/11/04 08:58:16;;;;;;;12.93;7.00;;;7.70;99.90;;;;;;4962779;28;20030;-75
2021/11/04 09:00:44;;;;;;;11.27;6.68;;;7.70;99.90;;;;;;4962776;28;20030;-76
2021/11/04 09:03:12;;;;;;;12.18;6.25;;;7.70;99.90;;;;;;4962893;28;20023;-76
2021/11/04 09:05:40;;;;;;;12.55;5.88;;;7.70;99.90;;;;;;4979851;28;20046;-76
2021/11/04 09:08:08;;;;;;;11.25;5.45;;;7.70;99.90;;;;;;4962682;28;20091;-76
2021/11/04 09:10:36;;;;;;;10.52;5.72;;;7.70;99.90;;;;;;4979965;28;20030;-76
2021/11/04 09:13:03;;;;;;;9.93;5.70;;;7.70;99.90;;;;;;4962875;28;20493;-75
2021/11/04 09:15:31;;;;;;;9.63;5.53;;;7.70;99.90;;;;;;4961832;28;20122;-75
2021/11/04 09:17:59;;;;;;;10.05;5.78;;;7.70;99.90;;;;;;4978827;28;20074;-76
2021/11/04 09:20:26;;;;;;;10.95;6.72;;;7.70;99.90;;;;;;4978556;28;20030;-76
2021/11/04 09:22:54;;;;;;;14.75;6.18;;;7.70;99.90;;;;;;4978622;28;20022;-75
2021/11/04 09:25:23;;;;;;;9.55;5.38;;;7.70;99.90;;;;;;4978558;28;20026;-76
2021/11/04 09:27:55;;;;;;;10.23;5.22;;;7.70;99.90;;;;;;4961340;28;20027;-75
2021/11/04 09:30:25;;;;;;;9.75;5.50;;;7.80;99.90;;;;;;4961228;28;20447;-76
2021/11/04 09:32:53;;;;;;;8.68;5.20;;;7.80;99.90;;;;;;4978309;28;20335;-76
2021/11/04 09:35:21;;;;;;;9.10;5.65;;;7.90;99.90;;;;;;4978472;28;20351;-75
2021/11/04 09:37:49;;;;;;;10.48;5.15;;;7.90;99.90;;;;;;4978647;28;20027;-76
2021/11/04 09:40:17;;;;;;;10.48;6.55;;;7.90;99.90;;;;;;4979479;28;20411;-75
2021/11/04 09:42:51;;;;;;;12.43;6.70;;;7.90;99.90;;;;;;4978939;28;20090;-76
2021/11/04 09:45:19;;;;;;;12.55;6.53;;;8.00;99.90;;;;;;4979657;28;20019;-76
2021/11/04 09:47:46;;;;;;;12.52;6.65;;;8.00;99.90;;;;;;4961859;28;20073;-75
2021/11/04 09:50:16;;;;;;;13.88;7.32;;;8.00;99.90;;;;;;4962738;28;20031;-76
2021/11/04 09:52:46;;;;;;;13.52;6.72;;;8.00;99.90;;;;;;4979038;28;20101;-75
2021/11/04 09:55:19;;;;;;;13.30;7.72;;;8.10;99.90;;;;;;4979037;28;20424;-76
2021/11/04 09:57:52;;;;;;;17.65;8.68;;;8.20;99.90;;;;;;4978750;28;20035;-76
2021/11/04 10:00:21;;;;;;;14.40;7.75;;;8.20;99.90;;;;;;4978584;28;20022;-76
2021/11/04 10:03:10;;;;;;;19.35;8.27;;;8.20;99.90;;;;;;4960690;28;20023;-75
2021/11/04 10:05:54;;;;;;;16.02;8.90;;;8.20;99.90;;;;;;4960721;28;20026;-86
2021/11/04 10:08:40;;;;;;;17.70;8.80;;;8.20;99.90;;;;;;4978296;28;20023;-75
2021/11/04 10:11:12;;;;;;;15.15;8.85;;;8.20;99.90;;;;;;4977823;28;20109;-75
2021/11/04 10:13:41;;;;;;;15.10;8.77;;;8.20;99.90;;;;;;4977865;28;20027;-75
2021/11/04 10:16:10;;;;;;;17.45;8.52;;;8.20;99.90;;;;;;4978109;28;20035;-76
2021/11/04 10:18:46;;;;;;;14.88;8.40;;;8.30;99.90;;;;;;4978283;28;20400;-76
2021/11/04 10:21:13;;;;;;;16.90;9.45;;;8.30;99.90;;;;;;4978545;28;20040;-76
2021/11/04 10:23:46;;;;;;;17.70;9.43;;;8.40;99.90;;;;;;4961544;28;20023;-76
2021/11/04 10:26:21;;;;;;;17.20;9.15;;;8.40;99.90;;;;;;4960610;28;20074;-77
2021/11/04 10:28:51;;;;;;;14.82;8.80;;;8.40;99.90;;;;;;4979045;28;20300;-77
2021/11/04 10:31:20;;;;;;;18.70;8.75;;;8.40;99.90;;;;;;4978573;28;20038;-77
2021/11/04 10:33:50;;;;;;;14.10;8.52;;;8.40;99.90;;;;;;4978767;28;20026;-76
2021/11/04 10:36:27;;;;;;;16.33;8.95;;;8.40;99.90;;;;;;4978398;28;20439;-76
2021/11/04 10:38:57;;;;;;;14.35;8.73;;;8.40;99.90;;;;;;4978651;28;20027;-75
2021/11/04 10:41:29;;;;;;;16.30;9.13;;;8.40;99.90;;;;;;4978211;28;20074;-76
2021/11/04 10:44:05;;;;;;;15.73;8.70;;;8.40;99.90;;;;;;4977189;28;20046;-76
2021/11/04 10:46:41;;;;;;;13.07;8.30;;;8.40;99.90;;;;;;4960315;28;20336;-76
2021/11/04 10:49:10;;;;;;;14.07;8.48;;;8.40;99.90;;;;;;4960128;28;20348;-77
2021/11/04 10:51:39;;;;;;;14.57;8.90;;;8.40;99.90;;;;;;4960221;28;20027;-78
2021/11/04 10:54:13;;;;;;;14.88;7.78;;;8.40;99.90;;;;;;4977523;28;20027;-80
2021/11/04 10:56:45;;;;;;;13.45;8.05;;;8.40;99.90;;;;;;4960214;28;20117;-89
2021/11/04 10:59:15;;;;;;;19.70;10.48;;;8.40;99.90;;;;;;4960072;28;20110;-81
2021/11/04 11:01:52;;;;;;;18.30;8.45;;;8.40;99.90;;;;;;4977819;28;20023;-78
2021/11/04 11:04:22;;;;;;;11.68;7.05;;;8.40;99.90;;;;;;4978007;28;20363;-82
2021/11/04 11:06:52;;;;;;;13.85;7.82;;;8.50;99.90;;;;;;4978445;28;20045;-75
2021/11/04 11:09:22;;;;;;;13.20;7.57;;;8.40;99.90;;;;;;4978205;28;20027;-74
2021/11/04 11:11:51;;;;;;;13.60;7.47;;;8.40;99.90;;;;;;4978141;28;20320;-76
2021/11/04 11:14:20;;;;;;;13.88;7.07;;;8.40;99.90;;;;;;4961085;28;20117;-77
2021/11/04 11:16:53;;;;;;;13.50;7.68;;;8.40;99.90;;;;;;4979598;28;20338;-77
2021/11/04 11:19:25;;;;;;;12.88;7.65;;;8.30;99.90;;;;;;4963013;28;20133;-76
2021/11/04 11:21:54;;;;;;;12.25;6.82;;;8.30;99.90;;;;;;4979463;28;20026;-76
2021/11/04 11:24:38;;;;;;;13.55;7.32;;;8.40;99.90;;;;;;4978890;28;20019;-78
2021/11/04 11:27:08;;;;;;;12.40;7.50;;;8.40;99.90;;;;;;4978643;28;20301;-77
2021/11/04 11:29:48;;;;;;;12.43;6.93;;;8.40;99.90;;;;;;4960062;28;20041;-77
2021/11/04 11:32:24;;;;;;;11.73;6.57;;;8.50;99.90;;;;;;4977067;28;20023;-76
2021/11/04 11:35:15;;;;;;;10.48;6.68;;;8.50;99.90;;;;;;4977231;28;20050;-77
2021/11/04 11:37:55;;;;;;;12.07;7.90;;;8.50;99.90;;;;;;4977870;28;20420;-76
2021/11/04 11:40:24;;;;;;;12.15;7.60;;;8.50;99.90;;;;;;4980684;28;20125;-77
2021/11/04 11:43:04;;;;;;;11.32;6.90;;;8.50;99.90;;;;;;4959771;29;20043;-75
2021/11/04 11:45:34;;;;;;;12.15;7.72;;;8.50;99.90;;;;;;4959956;29;20031;-76
2021/11/04 11:48:23;;;;;;;12.68;7.57;;;8.40;99.90;;;;;;4961793;28;20408;-77
2021/11/04 11:50:55;;;;;;;12.27;6.60;;;8.40;99.90;;;;;;4960765;29;20046;-77
2021/11/04 11:53:28;;;;;;;12.73;7.20;;;8.40;99.90;;;;;;4961785;29;20015;-74
2021/11/04 11:56:01;;;;;;;10.43;7.10;;;8.40;99.90;;;;;;4962046;28;20054;-76
2021/11/04 11:58:37;;;;;;;10.55;6.80;;;8.30;99.90;;;;;;4960585;29;20110;-75
2021/11/04 12:01:12;;;;;;;11.48;6.40;;;8.30;99.90;;;;;;4961957;28;20024;-76
2021/11/04 12:03:42;;;;;;;14.40;7.32;;;8.30;99.90;;;;;;4961889;28;20024;-77
2021/11/04 12:06:13;;;;;;;11.48;7.32;;;8.30;99.90;;;;;;4960853;29;20027;-77
2021/11/04 12:08:48;;;;;;;12.32;6.80;;;8.30;99.90;;;;;;4960847;28;20419;-77
2021/11/04 12:11:37;;;;;;;13.43;6.90;;;8.30;99.90;;;;;;4960883;28;20015;-76
2021/11/04 12:14:21;;;;;;;11.85;6.85;;;8.30;99.90;;;;;;4959501;29;20030;-76
2021/11/04 12:17:02;;;;;;;9.95;6.47;;;8.30;99.90;;;;;;4960786;28;20074;-80
2021/11/04 12:19:47;;;;;;;19.30;9.32;;;8.30;99.90;;;;;;4961041;28;20031;-76
2021/11/04 12:22:24;;;;;;;12.88;7.00;;;8.30;99.90;;;;;;4959366;29;20028;-76
2021/11/04 12:24:58;;;;;;;12.15;7.15;;;8.30;99.90;;;;;;4959256;29;20336;-77
2021/11/04 12:27:33;;;;;;;11.73;6.82;;;8.30;99.90;;;;;;4959306;29;20027;-77
2021/11/04 12:30:15;;;;;;;9.77;6.03;;;8.30;99.90;;;;;;4961617;28;20320;-76
2021/11/04 12:32:43;;;;;;;11.25;6.90;;;8.30;99.90;;;;;;4961269;28;20027;-77
2021/11/04 12:35:12;;;;;;;12.63;6.78;;;8.30;99.90;;;;;;4960145;29;20342;-78
2021/11/04 12:37:40;;;;;;;14.25;8.10;;;8.30;99.90;;;;;;4960981;29;20515;-77
2021/11/04 12:40:15;;;;;;;12.85;7.10;;;8.30;99.90;;;;;;4961026;28;20023;-78
2021/11/04 12:42:46;;;;;;;14.10;7.43;;;8.30;99.90;;;;;;4959660;29;20054;-83
2021/11/04 12:45:25;;;;;;;11.52;7.07;;;8.20;99.90;;;;;;4962190;29;20310;-76
2021/11/04 12:48:01;;;;;;;12.20;6.80;;;8.20;99.90;;;;;;4960841;28;20028;-77
2021/11/04 12:50:31;;;;;;;13.07;7.70;;;8.20;99.90;;;;;;4959199;28;20075;-75
2021/11/04 12:53:09;;;;;;;10.98;7.15;;;8.30;99.90;;;;;;4960507;28;20082;-76
2021/11/04 12:55:38;;;;;;;13.05;6.80;;;8.30;99.90;;;;;;4958696;29;20125;-75